Strona główna
METAR-TAF:

METAR-TAF

Lotnisko :

Katowice, Polska

Port lotniczy Katowice-Pyrzowice

Szerokość geograficzna: 50-28-27N, Długość geograficzna: 019-04-48E, wysokość: 284 m

Aktualna obserwacja pogody

Raport powstał 18 minut temu, godzina 20:00 UTC
Wiatr 4 kt od zachód
Temperatura 10°C
Wilgotność 76%
Ciśnienie 1018 hPa
Widzialność 10 km lub więcej
Brak chmur poniżej 1500 m i brak chmur cumulonimbus

METAR: EPKT 222000Z 27004KT CAVOK 10/06 Q1018

czas: 22:18 (20:18 UTC)

Prognoza

Raport powstał 2 godziny i 48 minut temu, godzina 17:30 UTC
Prognoza ważna od 22 godzina 18 UTC do 23 godzina 18 UTC
Wiatr 12 kt od zachód
Widzialność 10 km lub więcej
Rozproszone chmury na wysokości 4000 ft
Przejściowo
od 23 godzina 11 UTC do 23 godzina 16 UTC
Wiatr 15 kt od zachodnio-północny zachód w porywach dochodzący do 27 kt
Rozproszone chmury na wysokości 4000 ft, Cumulusy wypiętrznone.

TAF: EPKT 221730Z 2218/2318 28012KT 9999 SCT040 TEMPO 2311/2316 29015G27KT SCT040TCU

Obserwacja i prognoza pogody dla ponad 4000 lotnisk (raport METAR i TAF).

Dostępne stacje oznaczono żółtymi i czerwonymi punktami na mapie.

Najedź kursorem aby zobaczyć nazwę stacji.

Kliknij aby zobaczyć obserwacje i prognozy pogody.

Aby zmienić mapę: kliknij na zielony przycisk z czarnym krzyżykiem, aby powiększyć; na zielony przycisk z myślnikiem, aby pomniejszyć; na zielone strzałki, aby przejść do map sąsiednich.


METAR-TAF: